sensor_id;sensor_type;location;lat;lon;timestamp;P1;durP1;ratioP1;P2;durP2;ratioP2
49340;SDS011;35209;51.050;13.678;2022-12-16T00:04:18;101.57;;;48.20;;
49340;SDS011;35209;51.050;13.678;2022-12-16T00:09:19;111.55;;;50.25;;
49340;SDS011;35209;51.050;13.678;2022-12-16T00:14:21;105.45;;;47.83;;
49340;SDS011;35209;51.050;13.678;2022-12-16T00:19:23;111.82;;;48.22;;
49340;SDS011;35209;51.050;13.678;2022-12-16T00:24:24;110.32;;;48.75;;
49340;SDS011;35209;51.050;13.678;2022-12-16T00:29:26;106.60;;;48.08;;
49340;SDS011;35209;51.050;13.678;2022-12-16T00:34:28;107.00;;;48.22;;
49340;SDS011;35209;51.050;13.678;2022-12-16T00:39:30;105.35;;;47.67;;
49340;SDS011;35209;51.050;13.678;2022-12-16T00:44:31;106.50;;;48.53;;
49340;SDS011;35209;51.050;13.678;2022-12-16T00:49:33;109.35;;;49.47;;
49340;SDS011;35209;51.050;13.678;2022-12-16T00:54:35;110.15;;;49.78;;
49340;SDS011;35209;51.050;13.678;2022-12-16T00:59:37;97.35;;;46.08;;
49340;SDS011;35209;51.050;13.678;2022-12-16T01:04:38;107.43;;;47.75;;
49340;SDS011;35209;51.050;13.678;2022-12-16T01:09:40;107.47;;;49.33;;
49340;SDS011;35209;51.050;13.678;2022-12-16T01:14:42;112.45;;;50.15;;
49340;SDS011;35209;51.050;13.678;2022-12-16T01:19:44;99.90;;;47.33;;
49340;SDS011;35209;51.050;13.678;2022-12-16T01:24:46;105.78;;;49.28;;
49340;SDS011;35209;51.050;13.678;2022-12-16T01:29:48;110.68;;;50.88;;
49340;SDS011;35209;51.050;13.678;2022-12-16T01:34:51;117.00;;;50.17;;
49340;SDS011;35209;51.050;13.678;2022-12-16T01:39:56;118.80;;;53.17;;
49340;SDS011;35209;51.050;13.678;2022-12-16T01:45:20;112.25;;;53.03;;
49340;SDS011;35209;51.050;13.678;2022-12-16T01:50:25;115.25;;;52.42;;
49340;SDS011;35209;51.050;13.678;2022-12-16T01:55:31;116.45;;;51.47;;
49340;SDS011;35209;51.050;13.678;2022-12-16T02:05:39;118.88;;;52.95;;
49340;SDS011;35209;51.050;13.678;2022-12-16T02:15:46;116.70;;;53.13;;
49340;SDS011;35209;51.050;13.678;2022-12-16T02:20:57;121.90;;;53.97;;
49340;SDS011;35209;51.050;13.678;2022-12-16T02:32:11;110.68;;;51.15;;
49340;SDS011;35209;51.050;13.678;2022-12-16T02:42:41;108.25;;;50.05;;
49340;SDS011;35209;51.050;13.678;2022-12-16T02:47:47;103.28;;;49.50;;
49340;SDS011;35209;51.050;13.678;2022-12-16T02:52:49;113.57;;;52.80;;
49340;SDS011;35209;51.050;13.678;2022-12-16T03:03:18;114.97;;;52.17;;
49340;SDS011;35209;51.050;13.678;2022-12-16T03:08:35;113.97;;;50.90;;
49340;SDS011;35209;51.050;13.678;2022-12-16T03:13:42;99.35;;;48.35;;
49340;SDS011;35209;51.050;13.678;2022-12-16T03:18:50;110.40;;;51.25;;
49340;SDS011;35209;51.050;13.678;2022-12-16T03:24:02;116.63;;;51.38;;
49340;SDS011;35209;51.050;13.678;2022-12-16T03:29:22;114.57;;;49.25;;
49340;SDS011;35209;51.050;13.678;2022-12-16T03:34:55;108.75;;;49.15;;
49340;SDS011;35209;51.050;13.678;2022-12-16T03:40:02;97.38;;;44.42;;
49340;SDS011;35209;51.050;13.678;2022-12-16T03:45:10;89.18;;;41.60;;
49340;SDS011;35209;51.050;13.678;2022-12-16T03:55:19;70.35;;;33.97;;
49340;SDS011;35209;51.050;13.678;2022-12-16T04:00:21;68.10;;;32.80;;
49340;SDS011;35209;51.050;13.678;2022-12-16T04:05:24;58.30;;;30.63;;
49340;SDS011;35209;51.050;13.678;2022-12-16T04:10:26;68.45;;;30.75;;
49340;SDS011;35209;51.050;13.678;2022-12-16T04:15:46;54.97;;;30.08;;
49340;SDS011;35209;51.050;13.678;2022-12-16T04:21:07;57.95;;;29.75;;
49340;SDS011;35209;51.050;13.678;2022-12-16T04:26:28;63.63;;;29.10;;
49340;SDS011;35209;51.050;13.678;2022-12-16T04:31:30;58.65;;;29.77;;
49340;SDS011;35209;51.050;13.678;2022-12-16T04:36:31;63.50;;;31.48;;
49340;SDS011;35209;51.050;13.678;2022-12-16T04:41:52;58.60;;;29.40;;
49340;SDS011;35209;51.050;13.678;2022-12-16T04:47:13;62.85;;;29.50;;
49340;SDS011;35209;51.050;13.678;2022-12-16T04:52:33;59.63;;;29.65;;
49340;SDS011;35209;51.050;13.678;2022-12-16T04:57:57;59.47;;;30.13;;
49340;SDS011;35209;51.050;13.678;2022-12-16T05:03:19;57.13;;;30.52;;
49340;SDS011;35209;51.050;13.678;2022-12-16T05:08:39;59.72;;;29.40;;
49340;SDS011;35209;51.050;13.678;2022-12-16T05:13:59;63.38;;;30.67;;
49340;SDS011;35209;51.050;13.678;2022-12-16T05:19:20;58.13;;;30.60;;
49340;SDS011;35209;51.050;13.678;2022-12-16T05:24:41;64.00;;;31.83;;
49340;SDS011;35209;51.050;13.678;2022-12-16T05:30:02;56.75;;;28.90;;
49340;SDS011;35209;51.050;13.678;2022-12-16T05:35:23;54.83;;;28.27;;
49340;SDS011;35209;51.050;13.678;2022-12-16T05:40:43;63.05;;;31.73;;
49340;SDS011;35209;51.050;13.678;2022-12-16T05:46:03;66.40;;;31.42;;
49340;SDS011;35209;51.050;13.678;2022-12-16T05:51:23;66.57;;;32.33;;
49340;SDS011;35209;51.050;13.678;2022-12-16T05:56:44;65.82;;;33.33;;
49340;SDS011;35209;51.050;13.678;2022-12-16T06:02:05;66.40;;;32.10;;
49340;SDS011;35209;51.050;13.678;2022-12-16T06:07:25;71.70;;;34.30;;
49340;SDS011;35209;51.050;13.678;2022-12-16T06:12:46;76.93;;;37.58;;
49340;SDS011;35209;51.050;13.678;2022-12-16T06:18:06;76.18;;;36.90;;
49340;SDS011;35209;51.050;13.678;2022-12-16T06:23:26;69.68;;;33.65;;
49340;SDS011;35209;51.050;13.678;2022-12-16T06:28:46;71.93;;;34.70;;
49340;SDS011;35209;51.050;13.678;2022-12-16T06:34:06;75.63;;;34.85;;
49340;SDS011;35209;51.050;13.678;2022-12-16T06:39:27;76.13;;;35.40;;
49340;SDS011;35209;51.050;13.678;2022-12-16T06:44:53;74.00;;;36.38;;
49340;SDS011;35209;51.050;13.678;2022-12-16T06:50:13;77.88;;;37.08;;
49340;SDS011;35209;51.050;13.678;2022-12-16T06:55:34;83.53;;;39.30;;
49340;SDS011;35209;51.050;13.678;2022-12-16T07:00:54;81.55;;;37.88;;
49340;SDS011;35209;51.050;13.678;2022-12-16T07:06:14;80.75;;;36.38;;
49340;SDS011;35209;51.050;13.678;2022-12-16T07:11:35;82.03;;;39.90;;
49340;SDS011;35209;51.050;13.678;2022-12-16T07:16:56;92.63;;;41.30;;
49340;SDS011;35209;51.050;13.678;2022-12-16T07:22:18;86.43;;;41.30;;
49340;SDS011;35209;51.050;13.678;2022-12-16T07:27:39;94.53;;;42.28;;
49340;SDS011;35209;51.050;13.678;2022-12-16T07:33:04;92.15;;;43.88;;
49340;SDS011;35209;51.050;13.678;2022-12-16T07:38:24;92.28;;;44.25;;
49340;SDS011;35209;51.050;13.678;2022-12-16T07:43:44;99.82;;;46.88;;
49340;SDS011;35209;51.050;13.678;2022-12-16T07:49:04;99.55;;;45.95;;
49340;SDS011;35209;51.050;13.678;2022-12-16T07:54:25;99.85;;;46.83;;
49340;SDS011;35209;51.050;13.678;2022-12-16T07:59:45;100.75;;;46.65;;
49340;SDS011;35209;51.050;13.678;2022-12-16T08:10:32;104.72;;;47.47;;
49340;SDS011;35209;51.050;13.678;2022-12-16T08:15:55;114.13;;;51.33;;
49340;SDS011;35209;51.050;13.678;2022-12-16T08:21:16;107.75;;;47.92;;
49340;SDS011;35209;51.050;13.678;2022-12-16T08:26:36;107.35;;;48.17;;
49340;SDS011;35209;51.050;13.678;2022-12-16T08:31:56;118.47;;;50.92;;
49340;SDS011;35209;51.050;13.678;2022-12-16T08:37:17;113.70;;;50.50;;
49340;SDS011;35209;51.050;13.678;2022-12-16T08:42:37;115.18;;;52.20;;
49340;SDS011;35209;51.050;13.678;2022-12-16T08:47:57;110.50;;;50.30;;
49340;SDS011;35209;51.050;13.678;2022-12-16T08:53:18;96.55;;;47.33;;
49340;SDS011;35209;51.050;13.678;2022-12-16T08:58:38;105.80;;;48.40;;
49340;SDS011;35209;51.050;13.678;2022-12-16T09:03:58;100.78;;;46.35;;
49340;SDS011;35209;51.050;13.678;2022-12-16T09:09:18;105.35;;;47.53;;
49340;SDS011;35209;51.050;13.678;2022-12-16T09:14:38;112.00;;;48.50;;
49340;SDS011;35209;51.050;13.678;2022-12-16T09:19:59;102.78;;;46.90;;
49340;SDS011;35209;51.050;13.678;2022-12-16T09:25:19;98.97;;;46.30;;
49340;SDS011;35209;51.050;13.678;2022-12-16T09:30:39;102.03;;;45.50;;
49340;SDS011;35209;51.050;13.678;2022-12-16T09:36:00;98.10;;;45.65;;
49340;SDS011;35209;51.050;13.678;2022-12-16T09:46:56;97.43;;;46.15;;
49340;SDS011;35209;51.050;13.678;2022-12-16T09:52:22;105.38;;;47.90;;
49340;SDS011;35209;51.050;13.678;2022-12-16T09:57:43;91.82;;;43.47;;
49340;SDS011;35209;51.050;13.678;2022-12-16T10:03:07;98.97;;;44.45;;
49340;SDS011;35209;51.050;13.678;2022-12-16T10:08:43;100.78;;;44.60;;
49340;SDS011;35209;51.050;13.678;2022-12-16T10:14:18;100.22;;;46.75;;
49340;SDS011;35209;51.050;13.678;2022-12-16T10:19:47;101.50;;;45.20;;
49340;SDS011;35209;51.050;13.678;2022-12-16T10:25:14;98.00;;;46.42;;
49340;SDS011;35209;51.050;13.678;2022-12-16T10:30:38;99.43;;;46.73;;
49340;SDS011;35209;51.050;13.678;2022-12-16T10:35:58;95.13;;;45.38;;
49340;SDS011;35209;51.050;13.678;2022-12-16T10:41:19;90.55;;;43.70;;
49340;SDS011;35209;51.050;13.678;2022-12-16T10:46:42;104.05;;;47.13;;
49340;SDS011;35209;51.050;13.678;2022-12-16T10:52:02;105.25;;;48.05;;
49340;SDS011;35209;51.050;13.678;2022-12-16T11:03:22;112.00;;;52.00;;
49340;SDS011;35209;51.050;13.678;2022-12-16T11:08:44;104.25;;;51.13;;
49340;SDS011;35209;51.050;13.678;2022-12-16T11:14:46;106.13;;;49.25;;
49340;SDS011;35209;51.050;13.678;2022-12-16T11:20:13;101.55;;;48.60;;
49340;SDS011;35209;51.050;13.678;2022-12-16T11:25:42;99.05;;;48.47;;
49340;SDS011;35209;51.050;13.678;2022-12-16T11:31:12;99.70;;;46.83;;
49340;SDS011;35209;51.050;13.678;2022-12-16T11:36:35;103.07;;;48.70;;
49340;SDS011;35209;51.050;13.678;2022-12-16T11:41:58;104.90;;;49.92;;
49340;SDS011;35209;51.050;13.678;2022-12-16T11:47:21;104.05;;;47.53;;
49340;SDS011;35209;51.050;13.678;2022-12-16T11:52:53;92.80;;;46.22;;
49340;SDS011;35209;51.050;13.678;2022-12-16T12:03:45;96.22;;;48.67;;
49340;SDS011;35209;51.050;13.678;2022-12-16T12:26:02;98.93;;;47.78;;
49340;SDS011;35209;51.050;13.678;2022-12-16T12:36:50;102.03;;;48.42;;
49340;SDS011;35209;51.050;13.678;2022-12-16T12:59:58;103.32;;;47.65;;
49340;SDS011;35209;51.050;13.678;2022-12-16T13:05:22;107.03;;;48.75;;
49340;SDS011;35209;51.050;13.678;2022-12-16T13:10:43;103.43;;;50.58;;
49340;SDS011;35209;51.050;13.678;2022-12-16T13:16:05;106.70;;;49.25;;
49340;SDS011;35209;51.050;13.678;2022-12-16T13:27:00;113.13;;;51.97;;
49340;SDS011;35209;51.050;13.678;2022-12-16T13:32:22;104.03;;;49.80;;
49340;SDS011;35209;51.050;13.678;2022-12-16T13:37:50;101.32;;;49.75;;
49340;SDS011;35209;51.050;13.678;2022-12-16T13:43:42;105.82;;;51.80;;
49340;SDS011;35209;51.050;13.678;2022-12-16T14:01:11;106.47;;;50.55;;
49340;SDS011;35209;51.050;13.678;2022-12-16T14:06:37;108.90;;;50.47;;
49340;SDS011;35209;51.050;13.678;2022-12-16T14:12:06;105.65;;;49.92;;
49340;SDS011;35209;51.050;13.678;2022-12-16T14:17:57;109.30;;;52.08;;
49340;SDS011;35209;51.050;13.678;2022-12-16T14:23:33;101.22;;;48.70;;
49340;SDS011;35209;51.050;13.678;2022-12-16T14:29:02;116.35;;;53.88;;
49340;SDS011;35209;51.050;13.678;2022-12-16T14:34:35;149.70;;;70.93;;
49340;SDS011;35209;51.050;13.678;2022-12-16T14:39:55;117.72;;;56.33;;
49340;SDS011;35209;51.050;13.678;2022-12-16T14:50:50;111.35;;;51.80;;
49340;SDS011;35209;51.050;13.678;2022-12-16T14:56:15;118.97;;;53.28;;
49340;SDS011;35209;51.050;13.678;2022-12-16T15:01:36;113.07;;;52.88;;
49340;SDS011;35209;51.050;13.678;2022-12-16T15:06:57;116.03;;;53.17;;
49340;SDS011;35209;51.050;13.678;2022-12-16T15:12:20;118.07;;;55.83;;
49340;SDS011;35209;51.050;13.678;2022-12-16T15:17:48;120.93;;;54.92;;
49340;SDS011;35209;51.050;13.678;2022-12-16T15:23:32;121.97;;;54.38;;
49340;SDS011;35209;51.050;13.678;2022-12-16T15:28:52;116.05;;;54.65;;
49340;SDS011;35209;51.050;13.678;2022-12-16T15:34:16;119.07;;;55.80;;
49340;SDS011;35209;51.050;13.678;2022-12-16T15:39:40;117.18;;;56.10;;
49340;SDS011;35209;51.050;13.678;2022-12-16T15:45:00;124.82;;;56.63;;
49340;SDS011;35209;51.050;13.678;2022-12-16T15:50:22;116.85;;;53.25;;
49340;SDS011;35209;51.050;13.678;2022-12-16T15:55:52;111.65;;;52.15;;
49340;SDS011;35209;51.050;13.678;2022-12-16T16:01:15;115.97;;;55.50;;
49340;SDS011;35209;51.050;13.678;2022-12-16T16:06:44;117.32;;;54.28;;
49340;SDS011;35209;51.050;13.678;2022-12-16T16:12:11;112.85;;;53.58;;
49340;SDS011;35209;51.050;13.678;2022-12-16T16:17:33;113.45;;;54.72;;
49340;SDS011;35209;51.050;13.678;2022-12-16T16:22:53;106.22;;;51.88;;
49340;SDS011;35209;51.050;13.678;2022-12-16T16:28:13;119.50;;;54.67;;
49340;SDS011;35209;51.050;13.678;2022-12-16T16:33:33;112.85;;;52.28;;
49340;SDS011;35209;51.050;13.678;2022-12-16T16:38:57;114.88;;;56.50;;
49340;SDS011;35209;51.050;13.678;2022-12-16T16:44:17;104.88;;;52.88;;
49340;SDS011;35209;51.050;13.678;2022-12-16T16:49:57;110.85;;;52.90;;
49340;SDS011;35209;51.050;13.678;2022-12-16T16:55:21;104.15;;;52.17;;
49340;SDS011;35209;51.050;13.678;2022-12-16T17:00:43;109.18;;;53.17;;
49340;SDS011;35209;51.050;13.678;2022-12-16T17:06:11;124.13;;;56.08;;
49340;SDS011;35209;51.050;13.678;2022-12-16T17:11:32;110.05;;;52.15;;
49340;SDS011;35209;51.050;13.678;2022-12-16T17:16:52;117.47;;;55.30;;
49340;SDS011;35209;51.050;13.678;2022-12-16T17:22:12;112.80;;;51.45;;
49340;SDS011;35209;51.050;13.678;2022-12-16T17:27:33;110.60;;;53.28;;
49340;SDS011;35209;51.050;13.678;2022-12-16T17:32:53;114.00;;;53.15;;
49340;SDS011;35209;51.050;13.678;2022-12-16T17:38:13;118.18;;;53.50;;
49340;SDS011;35209;51.050;13.678;2022-12-16T17:43:33;112.82;;;54.40;;
49340;SDS011;35209;51.050;13.678;2022-12-16T17:48:54;108.90;;;52.65;;
49340;SDS011;35209;51.050;13.678;2022-12-16T17:54:15;106.57;;;52.20;;
49340;SDS011;35209;51.050;13.678;2022-12-16T17:59:36;101.35;;;50.38;;
49340;SDS011;35209;51.050;13.678;2022-12-16T18:04:56;113.00;;;52.65;;
49340;SDS011;35209;51.050;13.678;2022-12-16T18:10:16;101.53;;;48.80;;
49340;SDS011;35209;51.050;13.678;2022-12-16T18:15:37;104.40;;;49.22;;
49340;SDS011;35209;51.050;13.678;2022-12-16T18:21:07;112.03;;;51.92;;
49340;SDS011;35209;51.050;13.678;2022-12-16T18:26:32;98.03;;;50.47;;
49340;SDS011;35209;51.050;13.678;2022-12-16T18:31:51;116.57;;;56.72;;
49340;SDS011;35209;51.050;13.678;2022-12-16T18:37:11;124.82;;;60.03;;
49340;SDS011;35209;51.050;13.678;2022-12-16T18:42:32;125.22;;;60.67;;
49340;SDS011;35209;51.050;13.678;2022-12-16T18:47:52;111.18;;;56.40;;
49340;SDS011;35209;51.050;13.678;2022-12-16T18:53:12;103.85;;;51.65;;
49340;SDS011;35209;51.050;13.678;2022-12-16T18:58:34;105.50;;;52.40;;
49340;SDS011;35209;51.050;13.678;2022-12-16T19:03:55;111.10;;;53.83;;
49340;SDS011;35209;51.050;13.678;2022-12-16T19:09:16;100.90;;;53.65;;
49340;SDS011;35209;51.050;13.678;2022-12-16T19:14:36;109.90;;;54.75;;
49340;SDS011;35209;51.050;13.678;2022-12-16T19:19:56;111.75;;;53.45;;
49340;SDS011;35209;51.050;13.678;2022-12-16T19:25:16;108.18;;;52.33;;
49340;SDS011;35209;51.050;13.678;2022-12-16T19:30:36;107.07;;;51.50;;
49340;SDS011;35209;51.050;13.678;2022-12-16T19:35:57;106.55;;;52.22;;
49340;SDS011;35209;51.050;13.678;2022-12-16T19:41:17;108.20;;;52.33;;
49340;SDS011;35209;51.050;13.678;2022-12-16T19:46:38;108.03;;;53.67;;
49340;SDS011;35209;51.050;13.678;2022-12-16T19:52:02;111.55;;;52.10;;
49340;SDS011;35209;51.050;13.678;2022-12-16T19:57:23;104.38;;;52.03;;
49340;SDS011;35209;51.050;13.678;2022-12-16T20:02:46;110.60;;;50.47;;
49340;SDS011;35209;51.050;13.678;2022-12-16T20:08:06;109.45;;;51.35;;
49340;SDS011;35209;51.050;13.678;2022-12-16T20:13:34;110.57;;;52.83;;
49340;SDS011;35209;51.050;13.678;2022-12-16T20:19:14;104.20;;;50.67;;
49340;SDS011;35209;51.050;13.678;2022-12-16T20:24:34;111.40;;;53.53;;
49340;SDS011;35209;51.050;13.678;2022-12-16T20:29:56;112.25;;;51.75;;
49340;SDS011;35209;51.050;13.678;2022-12-16T20:35:30;100.57;;;50.67;;
49340;SDS011;35209;51.050;13.678;2022-12-16T20:40:57;108.15;;;52.10;;
49340;SDS011;35209;51.050;13.678;2022-12-16T20:46:19;105.53;;;52.20;;
49340;SDS011;35209;51.050;13.678;2022-12-16T20:51:47;109.18;;;51.30;;
49340;SDS011;35209;51.050;13.678;2022-12-16T20:57:07;115.25;;;54.17;;
49340;SDS011;35209;51.050;13.678;2022-12-16T21:02:27;102.93;;;49.72;;
49340;SDS011;35209;51.050;13.678;2022-12-16T21:07:49;98.13;;;47.90;;
49340;SDS011;35209;51.050;13.678;2022-12-16T21:13:11;107.93;;;53.83;;
49340;SDS011;35209;51.050;13.678;2022-12-16T21:18:32;105.05;;;52.22;;
49340;SDS011;35209;51.050;13.678;2022-12-16T21:23:53;99.25;;;50.75;;
49340;SDS011;35209;51.050;13.678;2022-12-16T21:29:14;97.88;;;50.15;;
49340;SDS011;35209;51.050;13.678;2022-12-16T21:34:34;100.20;;;48.65;;
49340;SDS011;35209;51.050;13.678;2022-12-16T21:39:56;93.18;;;48.63;;
49340;SDS011;35209;51.050;13.678;2022-12-16T21:45:16;98.00;;;48.53;;
49340;SDS011;35209;51.050;13.678;2022-12-16T21:50:41;99.63;;;48.00;;
49340;SDS011;35209;51.050;13.678;2022-12-16T21:56:02;99.18;;;48.92;;
49340;SDS011;35209;51.050;13.678;2022-12-16T22:01:22;97.40;;;48.63;;
49340;SDS011;35209;51.050;13.678;2022-12-16T22:06:42;94.15;;;47.35;;
49340;SDS011;35209;51.050;13.678;2022-12-16T22:12:02;104.07;;;48.13;;
49340;SDS011;35209;51.050;13.678;2022-12-16T22:17:22;99.15;;;46.95;;
49340;SDS011;35209;51.050;13.678;2022-12-16T22:22:43;92.75;;;47.45;;
49340;SDS011;35209;51.050;13.678;2022-12-16T22:28:05;91.78;;;44.88;;
49340;SDS011;35209;51.050;13.678;2022-12-16T22:33:25;98.90;;;47.95;;
49340;SDS011;35209;51.050;13.678;2022-12-16T22:38:45;95.15;;;46.08;;
49340;SDS011;35209;51.050;13.678;2022-12-16T22:44:06;99.10;;;46.10;;
49340;SDS011;35209;51.050;13.678;2022-12-16T22:49:27;92.85;;;46.65;;
49340;SDS011;35209;51.050;13.678;2022-12-16T22:54:47;88.85;;;44.60;;
49340;SDS011;35209;51.050;13.678;2022-12-16T23:00:07;96.28;;;46.03;;
49340;SDS011;35209;51.050;13.678;2022-12-16T23:05:28;90.43;;;45.50;;
49340;SDS011;35209;51.050;13.678;2022-12-16T23:10:58;95.40;;;46.70;;
49340;SDS011;35209;51.050;13.678;2022-12-16T23:16:18;89.45;;;46.45;;
49340;SDS011;35209;51.050;13.678;2022-12-16T23:21:38;93.63;;;45.92;;
49340;SDS011;35209;51.050;13.678;2022-12-16T23:26:59;87.82;;;44.88;;
49340;SDS011;35209;51.050;13.678;2022-12-16T23:32:29;91.65;;;45.70;;
49340;SDS011;35209;51.050;13.678;2022-12-16T23:37:50;88.72;;;43.13;;
49340;SDS011;35209;51.050;13.678;2022-12-16T23:43:10;96.35;;;47.78;;
49340;SDS011;35209;51.050;13.678;2022-12-16T23:48:31;92.97;;;47.72;;
49340;SDS011;35209;51.050;13.678;2022-12-16T23:53:52;93.47;;;44.88;;
49340;SDS011;35209;51.050;13.678;2022-12-16T23:59:12;98.00;;;47.65;;
